Omidiyeh, Iran
Current Conditions -  °F | °C
As of 7:00 PM on Thursday 30 Oct 2014 (Local Time) from OIAG Reporting Station
Scattered Clouds Scattered Clouds  
Wind Chill: 81°   Ceiling: Unl
Heat Index: 81°   Visibility: 6mi
Dew Point: 43°   Wind: 5mph
Humidity: 26%   Direction: 10°N
Pressure: 29.88"   Gusts: NA
Location:  30.75°N, 49.71°E
Report Text: OIAG 301600Z 01004KT 9999 SCT040 27/06 Q1012
Loading
Personal Weather Stations






























Interactive Weather Map New forecast layout! Learn more

10-Day Weather Forecast

Advertisements
Track Severe Weather on mobile